sensor_id;sensor_type;location;lat;lon;timestamp;temperature;humidity
18147;DHT22;9199;48.832;9.182;2023-09-18T00:00:50;19.50;99.90
18147;DHT22;9199;48.832;9.182;2023-09-18T00:03:17;19.50;99.90
18147;DHT22;9199;48.832;9.182;2023-09-18T00:05:45;19.50;99.90
18147;DHT22;9199;48.832;9.182;2023-09-18T00:08:13;19.50;99.90
18147;DHT22;9199;48.832;9.182;2023-09-18T00:10:40;19.50;99.90
18147;DHT22;9199;48.832;9.182;2023-09-18T00:13:07;19.50;99.90
18147;DHT22;9199;48.832;9.182;2023-09-18T00:15:34;19.50;99.90
18147;DHT22;9199;48.832;9.182;2023-09-18T00:18:04;19.50;99.90
18147;DHT22;9199;48.832;9.182;2023-09-18T00:20:30;19.40;99.90
18147;DHT22;9199;48.832;9.182;2023-09-18T00:22:57;19.40;99.90
18147;DHT22;9199;48.832;9.182;2023-09-18T00:25:24;19.40;99.90
18147;DHT22;9199;48.832;9.182;2023-09-18T00:27:51;19.30;99.90
18147;DHT22;9199;48.832;9.182;2023-09-18T00:30:18;19.20;99.90
18147;DHT22;9199;48.832;9.182;2023-09-18T00:32:44;19.20;99.90
18147;DHT22;9199;48.832;9.182;2023-09-18T00:35:13;19.20;99.90
18147;DHT22;9199;48.832;9.182;2023-09-18T00:37:40;19.30;99.90
18147;DHT22;9199;48.832;9.182;2023-09-18T00:40:09;19.30;99.90
18147;DHT22;9199;48.832;9.182;2023-09-18T00:42:37;19.40;99.90
18147;DHT22;9199;48.832;9.182;2023-09-18T00:45:04;19.40;99.90
18147;DHT22;9199;48.832;9.182;2023-09-18T00:47:32;19.40;99.90
18147;DHT22;9199;48.832;9.182;2023-09-18T00:49:58;19.40;99.90
18147;DHT22;9199;48.832;9.182;2023-09-18T00:52:27;19.40;99.90
18147;DHT22;9199;48.832;9.182;2023-09-18T00:54:53;19.30;99.90
18147;DHT22;9199;48.832;9.182;2023-09-18T00:57:21;19.40;99.90
18147;DHT22;9199;48.832;9.182;2023-09-18T00:59:48;19.30;99.90
18147;DHT22;9199;48.832;9.182;2023-09-18T01:02:15;19.30;99.90
18147;DHT22;9199;48.832;9.182;2023-09-18T01:04:42;19.30;99.90
18147;DHT22;9199;48.832;9.182;2023-09-18T01:07:09;19.30;99.90
18147;DHT22;9199;48.832;9.182;2023-09-18T01:09:38;19.40;99.90
18147;DHT22;9199;48.832;9.182;2023-09-18T01:12:09;19.40;99.90
18147;DHT22;9199;48.832;9.182;2023-09-18T01:14:42;19.30;99.90
18147;DHT22;9199;48.832;9.182;2023-09-18T01:17:10;19.40;99.90
18147;DHT22;9199;48.832;9.182;2023-09-18T01:19:38;19.40;99.90
18147;DHT22;9199;48.832;9.182;2023-09-18T01:22:05;19.50;99.90
18147;DHT22;9199;48.832;9.182;2023-09-18T01:24:34;19.50;99.90
18147;DHT22;9199;48.832;9.182;2023-09-18T01:27:02;19.50;99.90
18147;DHT22;9199;48.832;9.182;2023-09-18T01:29:29;19.60;99.90
18147;DHT22;9199;48.832;9.182;2023-09-18T01:31:56;19.60;99.90
18147;DHT22;9199;48.832;9.182;2023-09-18T01:34:26;19.70;99.90
18147;DHT22;9199;48.832;9.182;2023-09-18T01:36:57;19.80;99.90
18147;DHT22;9199;48.832;9.182;2023-09-18T01:39:25;19.90;99.90
18147;DHT22;9199;48.832;9.182;2023-09-18T01:41:58;19.90;99.90
18147;DHT22;9199;48.832;9.182;2023-09-18T01:44:25;19.80;99.90
18147;DHT22;9199;48.832;9.182;2023-09-18T01:46:52;19.70;99.90
18147;DHT22;9199;48.832;9.182;2023-09-18T01:49:27;19.70;99.90
18147;DHT22;9199;48.832;9.182;2023-09-18T01:51:54;19.70;99.90
18147;DHT22;9199;48.832;9.182;2023-09-18T01:54:20;19.70;99.90
18147;DHT22;9199;48.832;9.182;2023-09-18T01:56:47;19.70;99.90
18147;DHT22;9199;48.832;9.182;2023-09-18T01:59:15;19.90;99.90
18147;DHT22;9199;48.832;9.182;2023-09-18T02:01:42;20.00;99.90
18147;DHT22;9199;48.832;9.182;2023-09-18T02:04:09;20.30;99.90
18147;DHT22;9199;48.832;9.182;2023-09-18T02:06:35;20.60;99.90
18147;DHT22;9199;48.832;9.182;2023-09-18T02:09:01;20.80;99.90
18147;DHT22;9199;48.832;9.182;2023-09-18T02:11:29;21.10;99.90
18147;DHT22;9199;48.832;9.182;2023-09-18T02:13:55;21.00;99.90
18147;DHT22;9199;48.832;9.182;2023-09-18T02:16:24;20.90;99.90
18147;DHT22;9199;48.832;9.182;2023-09-18T02:18:54;20.80;99.90
18147;DHT22;9199;48.832;9.182;2023-09-18T02:21:22;20.70;99.90
18147;DHT22;9199;48.832;9.182;2023-09-18T02:23:49;20.60;99.90
18147;DHT22;9199;48.832;9.182;2023-09-18T02:26:15;20.50;99.90
18147;DHT22;9199;48.832;9.182;2023-09-18T02:28:42;20.40;99.90
18147;DHT22;9199;48.832;9.182;2023-09-18T02:31:09;20.30;99.90
18147;DHT22;9199;48.832;9.182;2023-09-18T02:33:37;20.30;99.90
18147;DHT22;9199;48.832;9.182;2023-09-18T02:36:04;20.20;99.90
18147;DHT22;9199;48.832;9.182;2023-09-18T02:38:31;20.20;99.90
18147;DHT22;9199;48.832;9.182;2023-09-18T02:40:58;20.10;99.90
18147;DHT22;9199;48.832;9.182;2023-09-18T02:43:25;20.00;99.90
18147;DHT22;9199;48.832;9.182;2023-09-18T02:45:52;19.90;99.90
18147;DHT22;9199;48.832;9.182;2023-09-18T02:48:19;20.00;99.90
18147;DHT22;9199;48.832;9.182;2023-09-18T02:50:47;20.10;99.90
18147;DHT22;9199;48.832;9.182;2023-09-18T02:53:17;20.30;99.90
18147;DHT22;9199;48.832;9.182;2023-09-18T02:55:45;20.30;99.90
18147;DHT22;9199;48.832;9.182;2023-09-18T02:58:12;20.30;99.90
18147;DHT22;9199;48.832;9.182;2023-09-18T03:00:41;20.30;99.90
18147;DHT22;9199;48.832;9.182;2023-09-18T03:03:08;20.20;99.90
18147;DHT22;9199;48.832;9.182;2023-09-18T03:05:35;20.20;99.90
18147;DHT22;9199;48.832;9.182;2023-09-18T03:08:03;20.10;99.90
18147;DHT22;9199;48.832;9.182;2023-09-18T03:10:33;20.10;99.90
18147;DHT22;9199;48.832;9.182;2023-09-18T03:13:00;20.10;99.90
18147;DHT22;9199;48.832;9.182;2023-09-18T03:15:27;20.10;99.90
18147;DHT22;9199;48.832;9.182;2023-09-18T03:17:55;20.10;99.90
18147;DHT22;9199;48.832;9.182;2023-09-18T03:20:22;20.00;99.90
18147;DHT22;9199;48.832;9.182;2023-09-18T03:22:50;20.00;99.90
18147;DHT22;9199;48.832;9.182;2023-09-18T03:25:18;19.90;99.90
18147;DHT22;9199;48.832;9.182;2023-09-18T03:27:45;19.80;99.90
18147;DHT22;9199;48.832;9.182;2023-09-18T03:30:11;19.70;99.90
18147;DHT22;9199;48.832;9.182;2023-09-18T03:32:41;19.70;99.90
18147;DHT22;9199;48.832;9.182;2023-09-18T03:35:08;19.70;99.90
18147;DHT22;9199;48.832;9.182;2023-09-18T03:37:41;19.60;99.90
18147;DHT22;9199;48.832;9.182;2023-09-18T03:40:08;19.60;99.90
18147;DHT22;9199;48.832;9.182;2023-09-18T03:42:37;19.60;99.90
18147;DHT22;9199;48.832;9.182;2023-09-18T03:45:06;19.60;99.90
18147;DHT22;9199;48.832;9.182;2023-09-18T03:47:33;19.60;99.90
18147;DHT22;9199;48.832;9.182;2023-09-18T03:50:00;19.70;99.90
18147;DHT22;9199;48.832;9.182;2023-09-18T03:52:27;19.70;99.90
18147;DHT22;9199;48.832;9.182;2023-09-18T03:54:54;19.60;99.90
18147;DHT22;9199;48.832;9.182;2023-09-18T03:57:21;19.60;99.90
18147;DHT22;9199;48.832;9.182;2023-09-18T03:59:49;19.60;99.90
18147;DHT22;9199;48.832;9.182;2023-09-18T04:02:15;19.70;99.90
18147;DHT22;9199;48.832;9.182;2023-09-18T04:04:42;19.70;99.90
18147;DHT22;9199;48.832;9.182;2023-09-18T04:07:09;19.70;99.90
18147;DHT22;9199;48.832;9.182;2023-09-18T04:09:37;19.70;99.90
18147;DHT22;9199;48.832;9.182;2023-09-18T04:12:05;19.80;99.90
18147;DHT22;9199;48.832;9.182;2023-09-18T04:14:32;19.80;99.90
18147;DHT22;9199;48.832;9.182;2023-09-18T04:17:00;19.80;99.90
18147;DHT22;9199;48.832;9.182;2023-09-18T04:19:27;19.80;99.90
18147;DHT22;9199;48.832;9.182;2023-09-18T04:21:54;19.80;99.90
18147;DHT22;9199;48.832;9.182;2023-09-18T04:24:21;19.70;99.90
18147;DHT22;9199;48.832;9.182;2023-09-18T04:26:49;19.70;99.90
18147;DHT22;9199;48.832;9.182;2023-09-18T04:29:16;19.60;99.90
18147;DHT22;9199;48.832;9.182;2023-09-18T04:31:43;19.50;99.90
18147;DHT22;9199;48.832;9.182;2023-09-18T04:34:11;19.40;99.90
18147;DHT22;9199;48.832;9.182;2023-09-18T04:36:38;19.40;99.90
18147;DHT22;9199;48.832;9.182;2023-09-18T04:39:05;19.40;99.90
18147;DHT22;9199;48.832;9.182;2023-09-18T04:41:32;19.40;99.90
18147;DHT22;9199;48.832;9.182;2023-09-18T04:43:59;19.40;99.90
18147;DHT22;9199;48.832;9.182;2023-09-18T04:46:26;19.40;99.90
18147;DHT22;9199;48.832;9.182;2023-09-18T04:48:52;19.40;99.90
18147;DHT22;9199;48.832;9.182;2023-09-18T04:51:20;19.30;99.90
18147;DHT22;9199;48.832;9.182;2023-09-18T04:53:47;19.30;99.90
18147;DHT22;9199;48.832;9.182;2023-09-18T04:56:14;19.30;99.90
18147;DHT22;9199;48.832;9.182;2023-09-18T04:58:41;19.40;99.90
18147;DHT22;9199;48.832;9.182;2023-09-18T05:01:07;19.40;99.90
18147;DHT22;9199;48.832;9.182;2023-09-18T05:03:36;19.40;99.90
18147;DHT22;9199;48.832;9.182;2023-09-18T05:06:03;19.40;99.90
18147;DHT22;9199;48.832;9.182;2023-09-18T05:08:31;19.40;99.90
18147;DHT22;9199;48.832;9.182;2023-09-18T05:10:58;19.30;99.90
18147;DHT22;9199;48.832;9.182;2023-09-18T05:13:25;19.30;99.90
18147;DHT22;9199;48.832;9.182;2023-09-18T05:15:52;19.30;99.90
18147;DHT22;9199;48.832;9.182;2023-09-18T05:18:19;19.40;99.90
18147;DHT22;9199;48.832;9.182;2023-09-18T05:20:47;19.50;99.90
18147;DHT22;9199;48.832;9.182;2023-09-18T05:23:13;19.60;99.90
18147;DHT22;9199;48.832;9.182;2023-09-18T05:25:42;19.70;99.90
18147;DHT22;9199;48.832;9.182;2023-09-18T05:28:09;19.80;99.90
18147;DHT22;9199;48.832;9.182;2023-09-18T05:30:36;19.80;99.90
18147;DHT22;9199;48.832;9.182;2023-09-18T05:33:05;19.80;99.90
18147;DHT22;9199;48.832;9.182;2023-09-18T05:35:33;19.80;99.90
18147;DHT22;9199;48.832;9.182;2023-09-18T05:38:02;19.80;99.90
18147;DHT22;9199;48.832;9.182;2023-09-18T05:40:29;19.90;99.90
18147;DHT22;9199;48.832;9.182;2023-09-18T05:42:57;19.90;99.90
18147;DHT22;9199;48.832;9.182;2023-09-18T05:45:24;20.10;99.90
18147;DHT22;9199;48.832;9.182;2023-09-18T05:47:52;20.10;99.90
18147;DHT22;9199;48.832;9.182;2023-09-18T05:50:20;20.10;99.90
18147;DHT22;9199;48.832;9.182;2023-09-18T05:52:47;20.20;99.90
18147;DHT22;9199;48.832;9.182;2023-09-18T05:55:14;20.30;99.90
18147;DHT22;9199;48.832;9.182;2023-09-18T05:57:41;20.30;99.90
18147;DHT22;9199;48.832;9.182;2023-09-18T06:00:10;20.30;99.90
18147;DHT22;9199;48.832;9.182;2023-09-18T06:02:38;20.30;99.90
18147;DHT22;9199;48.832;9.182;2023-09-18T06:05:06;20.40;99.90
18147;DHT22;9199;48.832;9.182;2023-09-18T06:07:33;20.40;99.90
18147;DHT22;9199;48.832;9.182;2023-09-18T06:09:59;20.40;99.90
18147;DHT22;9199;48.832;9.182;2023-09-18T06:12:26;20.30;99.90
18147;DHT22;9199;48.832;9.182;2023-09-18T06:14:53;20.30;99.90
18147;DHT22;9199;48.832;9.182;2023-09-18T06:17:21;20.00;99.90
18147;DHT22;9199;48.832;9.182;2023-09-18T06:19:48;19.90;99.90
18147;DHT22;9199;48.832;9.182;2023-09-18T06:22:15;19.70;99.90
18147;DHT22;9199;48.832;9.182;2023-09-18T06:24:42;19.60;99.90
18147;DHT22;9199;48.832;9.182;2023-09-18T06:27:08;19.60;99.90
18147;DHT22;9199;48.832;9.182;2023-09-18T06:29:36;19.60;99.90
18147;DHT22;9199;48.832;9.182;2023-09-18T06:32:05;19.60;99.90
18147;DHT22;9199;48.832;9.182;2023-09-18T06:34:33;19.60;99.90
18147;DHT22;9199;48.832;9.182;2023-09-18T06:37:00;19.60;99.90
18147;DHT22;9199;48.832;9.182;2023-09-18T06:39:26;19.70;99.90
18147;DHT22;9199;48.832;9.182;2023-09-18T06:41:53;19.80;99.90
18147;DHT22;9199;48.832;9.182;2023-09-18T06:44:20;19.80;99.90
18147;DHT22;9199;48.832;9.182;2023-09-18T06:46:48;19.90;99.90
18147;DHT22;9199;48.832;9.182;2023-09-18T06:49:15;19.90;99.90
18147;DHT22;9199;48.832;9.182;2023-09-18T06:51:43;20.00;99.90
18147;DHT22;9199;48.832;9.182;2023-09-18T06:54:10;20.10;99.90
18147;DHT22;9199;48.832;9.182;2023-09-18T06:56:37;20.20;99.90
18147;DHT22;9199;48.832;9.182;2023-09-18T06:59:03;20.20;99.90
18147;DHT22;9199;48.832;9.182;2023-09-18T07:01:30;20.20;99.90
18147;DHT22;9199;48.832;9.182;2023-09-18T07:03:58;20.20;99.90
18147;DHT22;9199;48.832;9.182;2023-09-18T07:06:25;20.20;99.90
18147;DHT22;9199;48.832;9.182;2023-09-18T07:08:53;20.20;99.90
18147;DHT22;9199;48.832;9.182;2023-09-18T07:11:20;20.30;99.90
18147;DHT22;9199;48.832;9.182;2023-09-18T07:13:46;20.30;99.90
18147;DHT22;9199;48.832;9.182;2023-09-18T07:16:13;20.40;99.90
18147;DHT22;9199;48.832;9.182;2023-09-18T07:18:40;20.50;99.90
18147;DHT22;9199;48.832;9.182;2023-09-18T07:21:07;20.50;99.90
18147;DHT22;9199;48.832;9.182;2023-09-18T07:23:34;20.60;99.90
18147;DHT22;9199;48.832;9.182;2023-09-18T07:26:03;20.60;99.90
18147;DHT22;9199;48.832;9.182;2023-09-18T07:28:31;20.70;99.90
18147;DHT22;9199;48.832;9.182;2023-09-18T07:31:04;20.80;99.90
18147;DHT22;9199;48.832;9.182;2023-09-18T07:33:31;20.80;99.90
18147;DHT22;9199;48.832;9.182;2023-09-18T07:35:58;20.90;99.90
18147;DHT22;9199;48.832;9.182;2023-09-18T07:38:25;20.80;99.90
18147;DHT22;9199;48.832;9.182;2023-09-18T07:40:51;20.90;99.90
18147;DHT22;9199;48.832;9.182;2023-09-18T07:43:19;20.80;99.90
18147;DHT22;9199;48.832;9.182;2023-09-18T07:45:46;20.90;99.90
18147;DHT22;9199;48.832;9.182;2023-09-18T07:48:13;21.00;99.90
18147;DHT22;9199;48.832;9.182;2023-09-18T07:50:43;21.00;99.90
18147;DHT22;9199;48.832;9.182;2023-09-18T07:53:10;21.10;99.90
18147;DHT22;9199;48.832;9.182;2023-09-18T07:55:37;21.30;99.90
18147;DHT22;9199;48.832;9.182;2023-09-18T07:58:04;21.30;99.90
18147;DHT22;9199;48.832;9.182;2023-09-18T08:00:32;21.50;99.90
18147;DHT22;9199;48.832;9.182;2023-09-18T08:02:59;21.50;99.90
18147;DHT22;9199;48.832;9.182;2023-09-18T08:05:27;21.60;99.90
18147;DHT22;9199;48.832;9.182;2023-09-18T08:07:55;21.70;99.90
18147;DHT22;9199;48.832;9.182;2023-09-18T08:10:22;21.80;99.90
18147;DHT22;9199;48.832;9.182;2023-09-18T08:12:49;21.80;99.90
18147;DHT22;9199;48.832;9.182;2023-09-18T08:15:18;21.90;99.90
18147;DHT22;9199;48.832;9.182;2023-09-18T08:17:46;22.00;99.90
18147;DHT22;9199;48.832;9.182;2023-09-18T08:20:13;22.10;99.90
18147;DHT22;9199;48.832;9.182;2023-09-18T08:22:41;22.00;99.90
18147;DHT22;9199;48.832;9.182;2023-09-18T08:25:08;22.00;99.90
18147;DHT22;9199;48.832;9.182;2023-09-18T08:27:36;21.90;99.90
18147;DHT22;9199;48.832;9.182;2023-09-18T08:30:06;21.80;99.90
18147;DHT22;9199;48.832;9.182;2023-09-18T08:32:34;21.70;99.90
18147;DHT22;9199;48.832;9.182;2023-09-18T08:35:03;21.60;99.90
18147;DHT22;9199;48.832;9.182;2023-09-18T08:37:30;21.50;99.90
18147;DHT22;9199;48.832;9.182;2023-09-18T08:39:57;21.50;99.90
18147;DHT22;9199;48.832;9.182;2023-09-18T08:42:25;21.40;99.90
18147;DHT22;9199;48.832;9.182;2023-09-18T08:44:57;21.30;99.90
18147;DHT22;9199;48.832;9.182;2023-09-18T08:47:25;21.40;99.90
18147;DHT22;9199;48.832;9.182;2023-09-18T08:49:54;21.30;99.90
18147;DHT22;9199;48.832;9.182;2023-09-18T08:52:24;21.10;99.90
18147;DHT22;9199;48.832;9.182;2023-09-18T08:54:52;21.00;99.90
18147;DHT22;9199;48.832;9.182;2023-09-18T08:57:19;20.90;99.90
18147;DHT22;9199;48.832;9.182;2023-09-18T08:59:48;20.80;99.90
18147;DHT22;9199;48.832;9.182;2023-09-18T09:02:16;20.70;99.90
18147;DHT22;9199;48.832;9.182;2023-09-18T09:04:43;20.50;99.90
18147;DHT22;9199;48.832;9.182;2023-09-18T09:07:10;20.20;99.90
18147;DHT22;9199;48.832;9.182;2023-09-18T09:09:38;19.90;99.90
18147;DHT22;9199;48.832;9.182;2023-09-18T09:12:06;19.60;99.90
18147;DHT22;9199;48.832;9.182;2023-09-18T09:14:32;19.40;99.90
18147;DHT22;9199;48.832;9.182;2023-09-18T09:16:59;19.20;99.90
18147;DHT22;9199;48.832;9.182;2023-09-18T09:19:30;19.10;99.90
18147;DHT22;9199;48.832;9.182;2023-09-18T09:21:58;19.00;99.90
18147;DHT22;9199;48.832;9.182;2023-09-18T09:24:41;18.90;99.90
18147;DHT22;9199;48.832;9.182;2023-09-18T09:27:09;18.90;99.90
18147;DHT22;9199;48.832;9.182;2023-09-18T09:29:36;18.80;99.90
18147;DHT22;9199;48.832;9.182;2023-09-18T09:32:13;18.80;99.90
18147;DHT22;9199;48.832;9.182;2023-09-18T09:34:41;18.80;99.90
18147;DHT22;9199;48.832;9.182;2023-09-18T09:37:08;18.70;99.90
18147;DHT22;9199;48.832;9.182;2023-09-18T09:39:47;18.70;99.90
18147;DHT22;9199;48.832;9.182;2023-09-18T09:42:16;18.70;99.90
18147;DHT22;9199;48.832;9.182;2023-09-18T09:44:45;18.70;99.90
18147;DHT22;9199;48.832;9.182;2023-09-18T09:47:14;18.70;99.90
18147;DHT22;9199;48.832;9.182;2023-09-18T09:49:45;18.80;99.90
18147;DHT22;9199;48.832;9.182;2023-09-18T09:52:18;18.90;99.90
18147;DHT22;9199;48.832;9.182;2023-09-18T09:54:48;18.90;99.90
18147;DHT22;9199;48.832;9.182;2023-09-18T09:57:14;19.10;99.90
18147;DHT22;9199;48.832;9.182;2023-09-18T09:59:41;19.10;99.90
18147;DHT22;9199;48.832;9.182;2023-09-18T10:02:10;19.10;99.90
18147;DHT22;9199;48.832;9.182;2023-09-18T10:04:40;19.20;99.90
18147;DHT22;9199;48.832;9.182;2023-09-18T10:07:10;19.30;99.90
18147;DHT22;9199;48.832;9.182;2023-09-18T10:09:41;19.40;99.90
18147;DHT22;9199;48.832;9.182;2023-09-18T10:12:11;19.50;99.90
18147;DHT22;9199;48.832;9.182;2023-09-18T10:14:38;19.60;99.90
18147;DHT22;9199;48.832;9.182;2023-09-18T10:17:14;19.60;99.90
18147;DHT22;9199;48.832;9.182;2023-09-18T10:19:49;19.60;99.90
18147;DHT22;9199;48.832;9.182;2023-09-18T10:22:24;19.50;99.90
18147;DHT22;9199;48.832;9.182;2023-09-18T10:24:59;19.40;99.90
18147;DHT22;9199;48.832;9.182;2023-09-18T10:27:32;19.40;99.90
18147;DHT22;9199;48.832;9.182;2023-09-18T10:30:00;19.40;99.90
18147;DHT22;9199;48.832;9.182;2023-09-18T10:32:31;19.40;99.90
18147;DHT22;9199;48.832;9.182;2023-09-18T10:34:59;19.40;99.90
18147;DHT22;9199;48.832;9.182;2023-09-18T10:37:28;19.30;99.90
18147;DHT22;9199;48.832;9.182;2023-09-18T10:39:56;19.30;99.90
18147;DHT22;9199;48.832;9.182;2023-09-18T10:42:26;19.20;99.90
18147;DHT22;9199;48.832;9.182;2023-09-18T10:44:57;19.20;99.90
18147;DHT22;9199;48.832;9.182;2023-09-18T10:47:24;19.20;99.90
18147;DHT22;9199;48.832;9.182;2023-09-18T10:49:51;19.20;99.90
18147;DHT22;9199;48.832;9.182;2023-09-18T10:52:18;19.20;99.90
18147;DHT22;9199;48.832;9.182;2023-09-18T10:54:45;19.20;99.90
18147;DHT22;9199;48.832;9.182;2023-09-18T10:57:12;19.20;99.90
18147;DHT22;9199;48.832;9.182;2023-09-18T10:59:44;19.30;99.90
18147;DHT22;9199;48.832;9.182;2023-09-18T11:02:13;19.30;99.90
18147;DHT22;9199;48.832;9.182;2023-09-18T11:04:41;19.30;99.90
18147;DHT22;9199;48.832;9.182;2023-09-18T11:07:08;19.30;99.90
18147;DHT22;9199;48.832;9.182;2023-09-18T11:09:43;19.40;99.90
18147;DHT22;9199;48.832;9.182;2023-09-18T11:12:11;19.40;99.90
18147;DHT22;9199;48.832;9.182;2023-09-18T11:14:46;19.40;99.90
18147;DHT22;9199;48.832;9.182;2023-09-18T11:17:35;19.40;99.90
18147;DHT22;9199;48.832;9.182;2023-09-18T11:20:08;19.40;99.90
18147;DHT22;9199;48.832;9.182;2023-09-18T11:22:39;19.30;99.90
18147;DHT22;9199;48.832;9.182;2023-09-18T11:25:28;19.30;99.90
18147;DHT22;9199;48.832;9.182;2023-09-18T11:27:56;19.30;99.90
18147;DHT22;9199;48.832;9.182;2023-09-18T11:30:25;19.30;99.90
18147;DHT22;9199;48.832;9.182;2023-09-18T11:32:54;19.40;99.90
18147;DHT22;9199;48.832;9.182;2023-09-18T11:35:21;19.40;99.90
18147;DHT22;9199;48.832;9.182;2023-09-18T11:38:03;19.50;99.90
18147;DHT22;9199;48.832;9.182;2023-09-18T11:40:31;19.50;99.90
18147;DHT22;9199;48.832;9.182;2023-09-18T11:43:19;19.50;99.90
18147;DHT22;9199;48.832;9.182;2023-09-18T11:45:49;19.50;99.90
18147;DHT22;9199;48.832;9.182;2023-09-18T11:48:18;19.50;99.90
18147;DHT22;9199;48.832;9.182;2023-09-18T11:50:46;19.50;99.90
18147;DHT22;9199;48.832;9.182;2023-09-18T11:53:15;19.60;99.90
18147;DHT22;9199;48.832;9.182;2023-09-18T11:55:43;19.70;99.90
18147;DHT22;9199;48.832;9.182;2023-09-18T11:58:10;19.80;99.90
18147;DHT22;9199;48.832;9.182;2023-09-18T12:00:37;20.00;99.90
18147;DHT22;9199;48.832;9.182;2023-09-18T12:03:19;20.00;99.90
18147;DHT22;9199;48.832;9.182;2023-09-18T12:05:52;20.20;99.90
18147;DHT22;9199;48.832;9.182;2023-09-18T12:08:20;20.30;99.90
18147;DHT22;9199;48.832;9.182;2023-09-18T12:10:50;20.30;99.90
18147;DHT22;9199;48.832;9.182;2023-09-18T12:13:17;20.30;99.90
18147;DHT22;9199;48.832;9.182;2023-09-18T12:15:44;20.40;99.90
18147;DHT22;9199;48.832;9.182;2023-09-18T12:18:11;20.40;99.90
18147;DHT22;9199;48.832;9.182;2023-09-18T12:20:46;20.40;99.90
18147;DHT22;9199;48.832;9.182;2023-09-18T12:23:13;20.50;99.90
18147;DHT22;9199;48.832;9.182;2023-09-18T12:25:40;20.40;99.90
18147;DHT22;9199;48.832;9.182;2023-09-18T12:28:07;20.40;99.90
18147;DHT22;9199;48.832;9.182;2023-09-18T12:30:34;20.40;99.90
18147;DHT22;9199;48.832;9.182;2023-09-18T12:33:01;20.40;99.90
18147;DHT22;9199;48.832;9.182;2023-09-18T12:35:29;20.40;99.90
18147;DHT22;9199;48.832;9.182;2023-09-18T12:37:58;20.40;99.90
18147;DHT22;9199;48.832;9.182;2023-09-18T12:40:26;20.50;99.90
18147;DHT22;9199;48.832;9.182;2023-09-18T12:42:55;20.50;99.90
18147;DHT22;9199;48.832;9.182;2023-09-18T12:45:22;20.60;99.90
18147;DHT22;9199;48.832;9.182;2023-09-18T12:47:49;20.80;99.90
18147;DHT22;9199;48.832;9.182;2023-09-18T12:50:16;21.10;99.90
18147;DHT22;9199;48.832;9.182;2023-09-18T12:52:43;21.60;99.90
18147;DHT22;9199;48.832;9.182;2023-09-18T12:55:22;22.20;99.90
18147;DHT22;9199;48.832;9.182;2023-09-18T12:57:49;23.00;99.90
18147;DHT22;9199;48.832;9.182;2023-09-18T13:00:18;23.30;99.90
18147;DHT22;9199;48.832;9.182;2023-09-18T13:02:46;23.60;99.90
18147;DHT22;9199;48.832;9.182;2023-09-18T13:05:19;23.90;99.90
18147;DHT22;9199;48.832;9.182;2023-09-18T13:07:46;24.10;99.90
18147;DHT22;9199;48.832;9.182;2023-09-18T13:10:14;24.10;99.90
18147;DHT22;9199;48.832;9.182;2023-09-18T13:12:45;24.00;99.90
18147;DHT22;9199;48.832;9.182;2023-09-18T13:15:12;23.80;99.90
18147;DHT22;9199;48.832;9.182;2023-09-18T13:17:40;23.80;99.90
18147;DHT22;9199;48.832;9.182;2023-09-18T13:20:16;23.90;99.90
18147;DHT22;9199;48.832;9.182;2023-09-18T13:22:48;24.00;99.90
18147;DHT22;9199;48.832;9.182;2023-09-18T13:25:19;24.20;99.90
18147;DHT22;9199;48.832;9.182;2023-09-18T13:27:47;24.20;99.90
18147;DHT22;9199;48.832;9.182;2023-09-18T13:30:14;24.20;99.90
18147;DHT22;9199;48.832;9.182;2023-09-18T13:32:44;24.00;99.90
18147;DHT22;9199;48.832;9.182;2023-09-18T13:35:11;24.00;99.90
18147;DHT22;9199;48.832;9.182;2023-09-18T13:37:39;23.70;99.90
18147;DHT22;9199;48.832;9.182;2023-09-18T13:40:07;23.80;99.90
18147;DHT22;9199;48.832;9.182;2023-09-18T13:42:34;24.50;99.90
18147;DHT22;9199;48.832;9.182;2023-09-18T13:45:04;25.70;99.90
18147;DHT22;9199;48.832;9.182;2023-09-18T13:47:32;27.10;99.90
18147;DHT22;9199;48.832;9.182;2023-09-18T13:49:59;28.10;99.90
18147;DHT22;9199;48.832;9.182;2023-09-18T13:52:26;28.10;99.90
18147;DHT22;9199;48.832;9.182;2023-09-18T13:54:53;28.00;99.30
18147;DHT22;9199;48.832;9.182;2023-09-18T13:57:20;27.40;99.90
18147;DHT22;9199;48.832;9.182;2023-09-18T13:59:48;27.10;99.90
18147;DHT22;9199;48.832;9.182;2023-09-18T14:02:17;26.80;99.90
18147;DHT22;9199;48.832;9.182;2023-09-18T14:04:44;26.90;99.80
18147;DHT22;9199;48.832;9.182;2023-09-18T14:07:11;26.70;99.90
18147;DHT22;9199;48.832;9.182;2023-09-18T14:09:38;26.70;99.90
18147;DHT22;9199;48.832;9.182;2023-09-18T14:12:06;26.70;99.90
18147;DHT22;9199;48.832;9.182;2023-09-18T14:14:33;26.40;99.90
18147;DHT22;9199;48.832;9.182;2023-09-18T14:17:01;26.00;99.90
18147;DHT22;9199;48.832;9.182;2023-09-18T14:19:30;26.00;99.90
18147;DHT22;9199;48.832;9.182;2023-09-18T14:21:57;26.10;99.90
18147;DHT22;9199;48.832;9.182;2023-09-18T14:24:29;26.10;99.90
18147;DHT22;9199;48.832;9.182;2023-09-18T14:26:55;25.70;99.90
18147;DHT22;9199;48.832;9.182;2023-09-18T14:29:22;25.40;99.90
18147;DHT22;9199;48.832;9.182;2023-09-18T14:31:49;25.30;99.90
18147;DHT22;9199;48.832;9.182;2023-09-18T14:34:16;25.40;99.90
18147;DHT22;9199;48.832;9.182;2023-09-18T14:36:44;25.30;99.90
18147;DHT22;9199;48.832;9.182;2023-09-18T14:39:11;25.00;99.90
18147;DHT22;9199;48.832;9.182;2023-09-18T14:41:38;25.00;99.90
18147;DHT22;9199;48.832;9.182;2023-09-18T14:44:06;25.10;99.90
18147;DHT22;9199;48.832;9.182;2023-09-18T14:46:34;25.80;99.90
18147;DHT22;9199;48.832;9.182;2023-09-18T14:49:02;26.20;99.60
18147;DHT22;9199;48.832;9.182;2023-09-18T14:51:29;26.70;98.60
18147;DHT22;9199;48.832;9.182;2023-09-18T14:53:59;27.40;97.50
18147;DHT22;9199;48.832;9.182;2023-09-18T14:56:25;28.70;95.40
18147;DHT22;9199;48.832;9.182;2023-09-18T14:58:51;29.20;94.00
18147;DHT22;9199;48.832;9.182;2023-09-18T15:01:18;29.60;93.60
18147;DHT22;9199;48.832;9.182;2023-09-18T15:03:46;30.00;92.40
18147;DHT22;9199;48.832;9.182;2023-09-18T15:06:12;30.70;91.50
18147;DHT22;9199;48.832;9.182;2023-09-18T15:08:39;31.20;89.60
18147;DHT22;9199;48.832;9.182;2023-09-18T15:11:07;30.90;88.60
18147;DHT22;9199;48.832;9.182;2023-09-18T15:13:34;30.70;88.40
18147;DHT22;9199;48.832;9.182;2023-09-18T15:16:01;30.10;89.70
18147;DHT22;9199;48.832;9.182;2023-09-18T15:18:28;29.20;90.80
18147;DHT22;9199;48.832;9.182;2023-09-18T15:20:55;29.00;91.10
18147;DHT22;9199;48.832;9.182;2023-09-18T15:23:22;28.40;91.80
18147;DHT22;9199;48.832;9.182;2023-09-18T15:26:09;28.10;92.10
18147;DHT22;9199;48.832;9.182;2023-09-18T15:28:36;28.20;92.00
18147;DHT22;9199;48.832;9.182;2023-09-18T15:31:02;28.20;92.10
18147;DHT22;9199;48.832;9.182;2023-09-18T15:33:29;27.50;92.80
18147;DHT22;9199;48.832;9.182;2023-09-18T15:35:56;26.90;93.80
18147;DHT22;9199;48.832;9.182;2023-09-18T15:38:23;27.40;93.10
18147;DHT22;9199;48.832;9.182;2023-09-18T15:40:50;28.70;91.40
18147;DHT22;9199;48.832;9.182;2023-09-18T15:43:18;29.70;90.10
18147;DHT22;9199;48.832;9.182;2023-09-18T15:45:45;30.30;88.30
18147;DHT22;9199;48.832;9.182;2023-09-18T15:48:12;30.50;87.40
18147;DHT22;9199;48.832;9.182;2023-09-18T15:50:39;30.70;86.10